createdAt,value
2017-07-18T00:00:27.565Z,101
2017-07-18T00:00:57.963Z,100.9
2017-07-18T00:01:28.476Z,100.9
2017-07-18T00:01:58.875Z,100.8
2017-07-18T00:02:54.943Z,100.9
2017-07-18T00:03:54.164Z,100.9
2017-07-18T00:04:53.381Z,101
2017-07-18T00:05:52.489Z,101
2017-07-18T00:06:51.998Z,100.8
2017-07-18T00:07:51.475Z,100.8
2017-07-18T00:08:50.687Z,101
2017-07-18T00:09:49.896Z,101
2017-07-18T00:10:20.305Z,101
2017-07-18T00:10:50.831Z,100.9
2017-07-18T00:11:21.347Z,100.9
2017-07-18T00:12:47.744Z,100.9
2017-07-18T00:13:46.873Z,100.9
2017-07-18T00:14:46.061Z,100.8
2017-07-18T00:15:45.162Z,100.8
2017-07-18T00:16:44.373Z,100.7
2017-07-18T00:17:43.975Z,100.8
2017-07-18T00:18:43.180Z,100.8
2017-07-18T00:19:42.281Z,100.8
2017-07-18T00:20:41.502Z,100.8
2017-07-18T00:21:40.719Z,100.8
2017-07-18T00:22:11.220Z,100.8
2017-07-18T00:22:41.743Z,101
2017-07-18T00:23:39.463Z,101.1
2017-07-18T00:25:37.943Z,101
2017-07-18T00:26:37.173Z,100.9
2017-07-18T00:27:36.380Z,101
2017-07-18T00:28:35.588Z,101
2017-07-18T00:29:34.811Z,100.9
2017-07-18T00:30:34.406Z,101.1
2017-07-18T00:31:33.532Z,101.1
2017-07-18T00:32:32.673Z,101.2
2017-07-18T00:33:31.892Z,101.3
2017-07-18T00:34:30.876Z,101.2
2017-07-18T00:35:30.476Z,101.2
2017-07-18T00:36:30.269Z,101.2
2017-07-18T00:37:28.996Z,101.2
2017-07-18T00:38:28.464Z,101.2
2017-07-18T00:39:27.677Z,101.2
2017-07-18T00:39:58.073Z,101.2
2017-07-18T00:40:28.588Z,101.2
2017-07-18T00:40:58.982Z,101.2
2017-07-18T00:41:29.511Z,101.3
2017-07-18T00:42:00.046Z,101.3
2017-07-18T00:43:24.319Z,101.5
2017-07-18T00:45:22.934Z,101.7
2017-07-18T00:46:22.172Z,101.7
2017-07-18T00:47:21.389Z,101.7
2017-07-18T00:48:20.987Z,101.6
2017-07-18T00:49:20.226Z,101.8
2017-07-18T00:49:50.641Z,101.8
2017-07-18T00:50:21.034Z,101.8
2017-07-18T00:50:51.569Z,101.8
2017-07-18T00:51:21.969Z,101.7
2017-07-18T00:51:52.479Z,101.7
2017-07-18T00:52:22.882Z,101.6
2017-07-18T00:52:53.292Z,101.6
2017-07-18T00:53:23.794Z,101.6
2017-07-18T00:53:54.311Z,101.6
2017-07-18T00:54:24.822Z,101.5
2017-07-18T00:54:55.336Z,101.5
2017-07-18T00:56:14.686Z,101.9
2017-07-18T00:57:13.906Z,101.9
2017-07-18T00:58:13.142Z,102
2017-07-18T00:59:12.377Z,102.1
2017-07-18T01:00:11.623Z,102.1
2017-07-18T01:01:10.754Z,102.1
2017-07-18T01:02:10.456Z,102.3
2017-07-18T01:02:40.851Z,102.3
2017-07-18T01:03:11.410Z,102.4
2017-07-18T01:03:42.073Z,102.4
2017-07-18T01:04:12.598Z,102.4
2017-07-18T01:04:43.123Z,102.4
2017-07-18T01:05:13.662Z,102.5
2017-07-18T01:05:44.175Z,102.5
2017-07-18T01:07:06.794Z,102.5
2017-07-18T01:08:05.885Z,102.6
2017-07-18T01:09:05.119Z,102.6
2017-07-18T01:10:04.328Z,102.7
2017-07-18T01:11:03.314Z,102.9
2017-07-18T01:12:02.917Z,102.8
2017-07-18T01:13:02.057Z,103
2017-07-18T01:14:01.268Z,103
2017-07-18T01:15:00.479Z,103
2017-07-18T01:15:59.697Z,103.1
2017-07-18T01:16:58.911Z,103.2
2017-07-18T01:17:58.519Z,103.3
2017-07-18T01:18:57.603Z,103.4
2017-07-18T01:19:56.794Z,103.5
2017-07-18T01:20:55.885Z,103.4
2017-07-18T01:21:55.099Z,103.3
2017-07-18T01:22:25.648Z,103.3
2017-07-18T01:23:54.049Z,103
2017-07-18T01:24:53.261Z,103.2
2017-07-18T01:25:52.464Z,103.2
2017-07-18T01:26:51.663Z,103.2
2017-07-18T01:27:50.885Z,103.2
2017-07-18T01:28:49.964Z,103.1
2017-07-18T01:29:49.175Z,103.2
2017-07-18T01:30:48.385Z,103.1
2017-07-18T01:31:47.594Z,102.7
2017-07-18T01:32:47.299Z,102.6
2017-07-18T01:33:17.838Z,102.6
2017-07-18T01:33:48.240Z,103
2017-07-18T01:34:18.743Z,103
2017-07-18T01:34:49.040Z,103.2
2017-07-18T01:35:44.997Z,103.1
2017-07-18T01:36:44.222Z,103.2
2017-07-18T01:37:43.449Z,103
2017-07-18T01:38:42.664Z,102.8
2017-07-18T01:39:41.787Z,102.7
2017-07-18T01:40:40.882Z,102.6
2017-07-18T01:41:40.476Z,102.5
2017-07-18T01:42:39.703Z,102.3
2017-07-18T01:43:38.797Z,102.3
2017-07-18T01:44:09.477Z,102.3
2017-07-18T01:44:40.010Z,102.2
2017-07-18T01:45:37.596Z,102
2017-07-18T01:46:36.800Z,101.7
2017-07-18T01:47:36.001Z,101.7
2017-07-18T01:48:35.081Z,101.8
2017-07-18T01:49:05.740Z,101.8
2017-07-18T01:49:36.146Z,101.9
2017-07-18T01:50:33.876Z,101.8
2017-07-18T01:51:32.984Z,101.8
2017-07-18T01:52:31.957Z,101.4
2017-07-18T01:53:31.182Z,101.1
2017-07-18T01:54:30.540Z,101
2017-07-18T01:55:29.654Z,100.5
2017-07-18T01:56:29.363Z,100.4
2017-07-18T01:57:28.572Z,100.5
2017-07-18T01:58:27.793Z,100.7
2017-07-18T01:58:58.307Z,100.7
2017-07-18T02:00:26.074Z,100.8
2017-07-18T02:01:25.291Z,100.3
2017-07-18T02:02:24.514Z,100.2
2017-07-18T02:03:23.737Z,100
2017-07-18T02:04:23.338Z,100
2017-07-18T02:05:22.205Z,100
2017-07-18T02:06:21.425Z,99.8
2017-07-18T02:07:21.022Z,99.5
2017-07-18T02:08:20.109Z,98.9
2017-07-18T02:09:19.339Z,99.3
2017-07-18T02:11:17.701Z,99
2017-07-18T02:12:17.296Z,99
2017-07-18T02:13:16.507Z,98.6
2017-07-18T02:14:15.709Z,98.5
2017-07-18T02:15:14.939Z,98.2
2017-07-18T02:16:14.032Z,98.1
2017-07-18T02:17:13.411Z,98.1
2017-07-18T02:18:12.500Z,98
2017-07-18T02:19:11.724Z,98.1
2017-07-18T02:20:11.433Z,98.1
2017-07-18T02:21:10.426Z,98.1
2017-07-18T02:22:09.515Z,97.9
2017-07-18T02:23:08.732Z,98
2017-07-18T02:24:08.429Z,98.1
2017-07-18T02:25:07.689Z,97.8
2017-07-18T02:26:06.907Z,98.3
2017-07-18T02:27:06.015Z,98.2
2017-07-18T02:28:04.989Z,98.1
2017-07-18T02:28:35.790Z,98.1
2017-07-18T02:29:06.089Z,97.6
2017-07-18T02:29:36.612Z,97.6
2017-07-18T02:30:07.148Z,98.2
2017-07-18T02:30:37.670Z,98.2
2017-07-18T02:32:02.346Z,98.1
2017-07-18T02:33:01.443Z,98
2017-07-18T02:34:00.660Z,98.1
2017-07-18T02:34:59.915Z,98.2
2017-07-18T02:35:59.108Z,98.2
2017-07-18T02:36:58.325Z,97.8
2017-07-18T02:37:57.529Z,98.5
2017-07-18T02:38:27.944Z,98.5
2017-07-18T02:38:58.272Z,98.1
2017-07-18T02:39:28.793Z,98.1
2017-07-18T02:39:59.220Z,97.3
2017-07-18T02:40:29.776Z,97.3
2017-07-18T02:41:00.215Z,97.5
2017-07-18T02:41:30.620Z,97.5
2017-07-18T02:42:01.148Z,97
2017-07-18T02:42:31.702Z,97
2017-07-18T02:43:53.130Z,97.6
2017-07-18T02:44:52.358Z,96.8
2017-07-18T02:45:51.473Z,97.6
2017-07-18T02:46:51.177Z,97.7
2017-07-18T02:47:50.400Z,97.5
2017-07-18T02:48:49.476Z,97.1
2017-07-18T02:49:48.695Z,97.4
2017-07-18T02:50:47.792Z,97.7
2017-07-18T02:51:47.017Z,97.6
2017-07-18T02:52:17.516Z,97.6
2017-07-18T02:52:48.046Z,97.5
2017-07-18T02:53:18.569Z,97.5
2017-07-18T02:54:44.840Z,96.4
2017-07-18T02:55:44.066Z,96.1
2017-07-18T02:56:43.251Z,95.9
2017-07-18T02:57:42.462Z,95.9
2017-07-18T02:58:42.163Z,96.2
2017-07-18T02:59:12.573Z,96.2
2017-07-18T02:59:42.878Z,95.3
2017-07-18T03:00:40.569Z,94.9
2017-07-18T03:01:39.533Z,94.4
2017-07-18T03:02:39.011Z,94.9
2017-07-18T03:03:38.102Z,95.1
2017-07-18T03:04:37.298Z,95.7
2017-07-18T03:05:36.499Z,95.8
2017-07-18T03:06:36.212Z,95.4
2017-07-18T03:07:35.423Z,95.3
2017-07-18T03:08:34.381Z,94.9
2017-07-18T03:09:33.511Z,94.9
2017-07-18T03:10:03.917Z,94.9
2017-07-18T03:10:34.330Z,95.5
2017-07-18T03:11:04.859Z,95.5
2017-07-18T03:11:35.361Z,95.1
2017-07-18T03:12:05.740Z,95.1
2017-07-18T03:13:30.515Z,94.7
2017-07-18T03:14:30.097Z,94.9
2017-07-18T03:15:29.210Z,94.4
2017-07-18T03:16:28.294Z,94.6
2017-07-18T03:17:27.911Z,94.9
2017-07-18T03:18:27.118Z,94.4
2017-07-18T03:19:26.323Z,94.1
2017-07-18T03:20:25.401Z,93.2
2017-07-18T03:20:55.939Z,93.2
2017-07-18T03:21:26.477Z,93.5
2017-07-18T03:21:56.865Z,93.5
2017-07-18T03:22:27.370Z,93.6
2017-07-18T03:22:57.898Z,93.6
2017-07-18T03:24:22.663Z,94
2017-07-18T03:25:21.631Z,94.3
2017-07-18T03:26:20.990Z,93.8
2017-07-18T03:27:20.469Z,93.8
2017-07-18T03:28:19.547Z,93.6
2017-07-18T03:29:18.759Z,93.7
2017-07-18T03:30:17.950Z,94
2017-07-18T03:31:17.160Z,93.9
2017-07-18T03:32:16.734Z,94.4
2017-07-18T03:33:15.940Z,93.9
2017-07-18T03:34:15.144Z,93.8
2017-07-18T03:35:14.492Z,93.6
2017-07-18T03:36:13.686Z,93.8
2017-07-18T03:37:12.653Z,93.7
2017-07-18T03:38:11.858Z,93.7
2017-07-18T03:39:10.946Z,92.6
2017-07-18T03:40:10.311Z,92.9
2017-07-18T03:41:09.553Z,93.2
2017-07-18T03:42:09.254Z,93.4
2017-07-18T03:43:08.452Z,93.5
2017-07-18T03:44:07.552Z,93.1
2017-07-18T03:45:06.651Z,93.1
2017-07-18T03:46:05.856Z,92.8
2017-07-18T03:47:05.068Z,91.4
2017-07-18T03:47:35.597Z,91.4
2017-07-18T03:48:06.126Z,91.3
2017-07-18T03:48:36.295Z,91.3
2017-07-18T03:49:06.813Z,91.3
2017-07-18T03:50:02.881Z,91.5
2017-07-18T03:51:02.264Z,91.9
2017-07-18T03:52:01.349Z,91.5
2017-07-18T03:53:00.975Z,92
2017-07-18T03:54:00.042Z,92.5
2017-07-18T03:54:59.260Z,92.6
2017-07-18T03:55:58.619Z,92.7
2017-07-18T03:56:57.848Z,93
2017-07-18T03:57:56.943Z,93.1
2017-07-18T03:58:56.524Z,93.3
2017-07-18T03:59:55.733Z,92.3
2017-07-18T04:00:54.843Z,92.5
2017-07-18T04:01:54.053Z,92.8
2017-07-18T04:02:53.262Z,93.1
2017-07-18T04:03:52.499Z,92.8
2017-07-18T04:04:51.842Z,92.8
2017-07-18T04:05:50.935Z,92.7
2017-07-18T04:06:50.515Z,92.1
2017-07-18T04:07:21.020Z,92.1
2017-07-18T04:07:51.417Z,92.3
2017-07-18T04:08:49.096Z,92.3
2017-07-18T04:09:48.209Z,92.6
2017-07-18T04:10:47.294Z,92.7
2017-07-18T04:11:46.499Z,92.9
2017-07-18T04:12:46.195Z,92.8
2017-07-18T04:13:45.327Z,92.5
2017-07-18T04:14:44.541Z,92.5
2017-07-18T04:15:43.754Z,92
2017-07-18T04:16:42.974Z,92.2
2017-07-18T04:17:42.210Z,92.4
2017-07-18T04:18:12.710Z,92.4
2017-07-18T04:18:43.232Z,92.5
2017-07-18T04:19:13.780Z,92.5
2017-07-18T04:19:44.170Z,92.5
2017-07-18T04:20:14.695Z,92.5
2017-07-18T04:21:38.981Z,93
2017-07-18T04:22:38.585Z,93.2
2017-07-18T04:23:37.796Z,92.7
2017-07-18T04:24:37.004Z,92.7
2017-07-18T04:25:36.213Z,92.6
2017-07-18T04:26:35.460Z,92.7
2017-07-18T04:27:34.570Z,92.8
2017-07-18T04:28:05.069Z,92.8
2017-07-18T04:28:35.483Z,92.7
2017-07-18T04:29:06.008Z,92.7
2017-07-18T04:29:36.534Z,92.7
2017-07-18T04:30:06.909Z,92.7
2017-07-18T04:30:37.370Z,92.8
2017-07-18T04:31:07.917Z,92.8
2017-07-18T04:32:30.936Z,92.8
2017-07-18T04:33:30.155Z,92.7
2017-07-18T04:34:29.736Z,92.6
2017-07-18T04:35:28.831Z,92.8
2017-07-18T04:36:28.029Z,93.1
2017-07-18T04:37:27.255Z,93.1
2017-07-18T04:38:26.868Z,93.2
2017-07-18T04:39:26.071Z,93.1
2017-07-18T04:40:25.147Z,93.1
2017-07-18T04:41:24.352Z,92.8
2017-07-18T04:41:54.636Z,92.8
2017-07-18T04:42:25.142Z,92.7
2017-07-18T04:42:55.685Z,92.7
2017-07-18T04:43:26.090Z,93.1
2017-07-18T04:44:22.150Z,93.3
2017-07-18T04:45:21.241Z,93.3
2017-07-18T04:46:20.738Z,93.3
2017-07-18T04:47:19.952Z,93.3
2017-07-18T04:47:50.341Z,93.3
2017-07-18T04:49:18.233Z,93.5
2017-07-18T04:50:17.822Z,93.6
2017-07-18T04:51:17.031Z,93.6
2017-07-18T04:52:16.102Z,93.5
2017-07-18T04:53:15.312Z,93.4
2017-07-18T04:54:14.772Z,92.9
2017-07-18T04:55:13.745Z,92.8
2017-07-18T04:56:13.323Z,92.9
2017-07-18T04:57:12.548Z,91.6
2017-07-18T04:58:11.761Z,91.6
2017-07-18T04:58:42.286Z,91.6
2017-07-18T04:59:12.809Z,92.2
2017-07-18T04:59:43.312Z,92.2
2017-07-18T05:00:13.829Z,91.9
2017-07-18T05:00:44.264Z,91.9
2017-07-18T05:01:14.664Z,91.6
2017-07-18T05:01:45.046Z,91.6
2017-07-18T05:03:07.885Z,91.8
2017-07-18T05:04:07.103Z,91.6
2017-07-18T05:05:06.314Z,90.8
2017-07-18T05:06:05.785Z,91
2017-07-18T05:07:04.885Z,91
2017-07-18T05:08:04.502Z,90.3
2017-07-18T05:09:03.721Z,90.1
2017-07-18T05:09:34.244Z,90.1
2017-07-18T05:10:04.526Z,89.6
2017-07-18T05:10:34.926Z,89.6
2017-07-18T05:11:05.443Z,90
2017-07-18T05:11:35.977Z,90
2017-07-18T05:13:00.860Z,90.6
2017-07-18T05:14:00.062Z,90
2017-07-18T05:14:59.319Z,89.5
2017-07-18T05:15:58.421Z,90.1
2017-07-18T05:16:57.638Z,90
2017-07-18T05:17:56.630Z,89.9
2017-07-18T05:18:56.135Z,90.2
2017-07-18T05:19:55.599Z,90.3
2017-07-18T05:20:54.677Z,90.4
2017-07-18T05:21:53.898Z,90.3
2017-07-18T05:22:53.087Z,90.6
2017-07-18T05:23:52.707Z,90.3
2017-07-18T05:24:51.663Z,90.4
2017-07-18T05:25:50.875Z,90.2
2017-07-18T05:26:50.070Z,90
2017-07-18T05:27:49.312Z,88.4
2017-07-18T05:28:48.915Z,88.6
2017-07-18T05:29:47.882Z,89.3
2017-07-18T05:30:47.090Z,89.5
2017-07-18T05:31:46.331Z,89.7
2017-07-18T05:32:46.046Z,89.6
2017-07-18T05:33:45.241Z,89.7
2017-07-18T05:34:44.465Z,89.8
2017-07-18T05:35:43.530Z,89.8
2017-07-18T05:36:42.603Z,89.9
2017-07-18T05:37:42.056Z,90.4
2017-07-18T05:38:41.258Z,90.4
2017-07-18T05:39:40.862Z,90.2
2017-07-18T05:40:40.055Z,90.1
2017-07-18T05:41:39.252Z,89.9
2017-07-18T05:42:38.457Z,90
2017-07-18T05:43:37.563Z,90
2017-07-18T05:44:36.770Z,90
2017-07-18T05:45:36.359Z,89.7
2017-07-18T05:46:35.322Z,89.9
2017-07-18T05:47:34.532Z,89.9
2017-07-18T05:48:33.600Z,89.7
2017-07-18T05:49:32.965Z,89.6
2017-07-18T05:50:32.553Z,89.7
2017-07-18T05:51:31.784Z,89.9
2017-07-18T05:52:30.740Z,89.6
2017-07-18T05:53:30.442Z,89.3
2017-07-18T05:54:29.647Z,89.4
2017-07-18T05:55:28.725Z,89.8
2017-07-18T05:56:28.308Z,89.7
2017-07-18T05:56:58.887Z,89.7
2017-07-18T05:57:29.397Z,89.9
2017-07-18T05:58:26.582Z,89.4
2017-07-18T05:59:25.788Z,88.2
2017-07-18T06:00:24.974Z,88.7
2017-07-18T06:01:24.200Z,89
2017-07-18T06:02:23.397Z,89
2017-07-18T06:03:23.022Z,88.6
2017-07-18T06:04:22.223Z,88.6
2017-07-18T06:05:21.428Z,88.8
2017-07-18T06:06:20.650Z,88.4
2017-07-18T06:06:51.179Z,88.4
2017-07-18T06:07:21.693Z,88.6
2017-07-18T06:07:52.085Z,88.6
2017-07-18T06:08:22.489Z,88.5
2017-07-18T06:08:52.891Z,88.5
2017-07-18T06:11:17.174Z,88.3
2017-07-18T06:12:16.252Z,87.8
2017-07-18T06:13:15.357Z,87.8
2017-07-18T06:14:14.590Z,88
2017-07-18T06:15:13.835Z,87.5
2017-07-18T06:16:13.436Z,87.5
2017-07-18T06:17:12.527Z,87.6
2017-07-18T06:17:43.036Z,87.6
2017-07-18T06:18:13.574Z,87.2
2017-07-18T06:18:44.108Z,87.2
2017-07-18T06:19:14.501Z,87.1
2017-07-18T06:19:44.887Z,87.1
2017-07-18T06:21:09.759Z,86.9
2017-07-18T06:22:08.971Z,86.8
2017-07-18T06:23:08.098Z,86.9
2017-07-18T06:24:07.298Z,87
2017-07-18T06:25:06.537Z,86.9
2017-07-18T06:26:05.780Z,86.6
2017-07-18T06:27:05.130Z,87
2017-07-18T06:28:04.230Z,86.3
2017-07-18T06:29:03.955Z,86.3
2017-07-18T06:30:02.962Z,86.4
2017-07-18T06:31:02.194Z,86.2
2017-07-18T06:32:01.547Z,86.3
2017-07-18T06:33:00.635Z,86.3
2017-07-18T06:34:00.245Z,86.5
2017-07-18T06:34:59.463Z,86.6
2017-07-18T06:35:58.658Z,87
2017-07-18T06:36:29.177Z,87
2017-07-18T06:36:59.705Z,86.9
2017-07-18T06:37:30.231Z,86.9
2017-07-18T06:38:56.499Z,87.1
2017-07-18T06:39:55.712Z,86.7
2017-07-18T06:40:54.799Z,85.9
2017-07-18T06:41:54.189Z,85.5
2017-07-18T06:42:53.730Z,84.6
2017-07-18T06:43:52.819Z,85
2017-07-18T06:44:51.894Z,84.7
2017-07-18T06:45:51.094Z,84.9
2017-07-18T06:46:50.447Z,84.9
2017-07-18T06:47:20.730Z,84.9
2017-07-18T06:47:51.500Z,84.4
2017-07-18T06:48:22.016Z,84.4
2017-07-18T06:48:52.541Z,83.1
2017-07-18T06:49:22.944Z,83.1
2017-07-18T06:49:53.445Z,83.1
2017-07-18T06:50:23.847Z,83.1
2017-07-18T06:51:47.094Z,83
2017-07-18T06:52:46.294Z,82.8
2017-07-18T06:53:45.648Z,82.6
2017-07-18T06:54:44.726Z,81.9
2017-07-18T06:55:43.953Z,82
2017-07-18T06:56:43.146Z,81.9
2017-07-18T06:57:42.844Z,81.9
2017-07-18T06:58:42.035Z,82.1
2017-07-18T06:59:12.441Z,82.1
2017-07-18T06:59:42.865Z,81.8
2017-07-18T07:00:13.651Z,81.8
2017-07-18T07:01:39.533Z,81.6
2017-07-18T07:02:39.250Z,81.3
2017-07-18T07:03:38.476Z,80.8
2017-07-18T07:04:37.546Z,81.2
2017-07-18T07:05:36.643Z,80.2
2017-07-18T07:06:36.350Z,80.3
2017-07-18T07:07:35.436Z,80
2017-07-18T07:08:34.624Z,79.4
2017-07-18T07:09:33.816Z,80
2017-07-18T07:10:33.403Z,79.9
2017-07-18T07:11:32.481Z,80.1
2017-07-18T07:12:31.677Z,79.4
2017-07-18T07:13:30.895Z,79.5
2017-07-18T07:14:30.618Z,79.5
2017-07-18T07:15:29.828Z,78.9
2017-07-18T07:16:28.902Z,78.5
2017-07-18T07:17:28.260Z,77.6
2017-07-18T07:18:27.349Z,77.9
2017-07-18T07:19:26.946Z,76.5
2017-07-18T07:19:57.210Z,76.5
2017-07-18T07:21:25.600Z,77.7
2017-07-18T07:22:24.459Z,77.6
2017-07-18T07:23:23.939Z,77.6
2017-07-18T07:24:23.021Z,77.6
2017-07-18T07:25:22.621Z,78.3
2017-07-18T07:26:21.834Z,78.2
2017-07-18T07:27:20.927Z,78.4
2017-07-18T07:28:20.501Z,77.5
2017-07-18T07:29:19.477Z,76.4
2017-07-18T07:30:19.180Z,76.8
2017-07-18T07:30:49.693Z,76.8
2017-07-18T07:31:20.099Z,76.2
2017-07-18T07:32:17.686Z,75.8
2017-07-18T07:33:16.783Z,75.2
2017-07-18T07:34:15.983Z,77
2017-07-18T07:35:15.582Z,77.3
2017-07-18T07:36:14.955Z,77.4
2017-07-18T07:37:13.956Z,77.4
2017-07-18T07:38:13.556Z,77.7
2017-07-18T07:39:12.767Z,78.2
2017-07-18T07:40:11.859Z,78.6
2017-07-18T07:41:11.065Z,78.6
2017-07-18T07:42:10.289Z,78.7
2017-07-18T07:43:10.023Z,78.4
2017-07-18T07:44:09.103Z,78.2
2017-07-18T07:45:08.588Z,77.8
2017-07-18T07:45:39.086Z,77.8
2017-07-18T07:46:09.585Z,78.8
2017-07-18T07:46:39.884Z,78.8
2017-07-18T07:48:06.142Z,77.1
2017-07-18T07:49:05.714Z,77
2017-07-18T07:50:04.901Z,76.7
2017-07-18T07:51:03.977Z,77.4
2017-07-18T07:52:03.442Z,78
2017-07-18T07:53:03.016Z,76.5
2017-07-18T07:54:02.001Z,77.9
2017-07-18T07:55:01.581Z,76.6
2017-07-18T07:55:32.093Z,76.6
2017-07-18T07:56:02.600Z,77
2017-07-18T07:56:33.119Z,77
2017-07-18T07:57:03.640Z,75.7
2017-07-18T07:57:34.013Z,75.7
2017-07-18T07:58:04.537Z,75.3
2017-07-18T07:58:35.076Z,75.3
2017-07-18T07:59:05.579Z,75.2
2017-07-18T07:59:57.737Z,75.9
2017-07-18T08:00:57.439Z,76
2017-07-18T08:01:56.513Z,76.8
2017-07-18T08:02:55.868Z,77.8
2017-07-18T08:03:55.057Z,78
2017-07-18T08:04:54.632Z,77.2
2017-07-18T08:05:53.825Z,76.9
2017-07-18T08:06:52.908Z,76.3
2017-07-18T08:07:52.100Z,75.5
2017-07-18T08:08:22.632Z,75.5
2017-07-18T08:08:52.913Z,75.4
2017-07-18T08:09:51.107Z,73.2
2017-07-18T08:10:50.446Z,73.2
2017-07-18T08:11:49.653Z,72.7
2017-07-18T08:12:48.871Z,72.7
2017-07-18T08:13:48.097Z,73
2017-07-18T08:14:47.677Z,73.3
2017-07-18T08:15:46.759Z,73.4
2017-07-18T08:16:46.113Z,73.6
2017-07-18T08:17:45.173Z,74.1
2017-07-18T08:18:44.618Z,74
2017-07-18T08:19:43.816Z,74.1
2017-07-18T08:20:43.515Z,74.8
2017-07-18T08:21:42.471Z,73.8
2017-07-18T08:22:42.165Z,74
2017-07-18T08:23:41.355Z,73
2017-07-18T08:24:40.602Z,72.9
2017-07-18T08:25:39.797Z,73.3
2017-07-18T08:26:10.195Z,73.3
2017-07-18T08:26:40.714Z,72.2
2017-07-18T08:27:11.225Z,72.2
2017-07-18T08:27:41.623Z,72.5
2017-07-18T08:28:12.029Z,72.5
2017-07-18T08:29:37.267Z,71.8
2017-07-18T08:30:36.450Z,71.4
2017-07-18T08:31:35.931Z,71.8
2017-07-18T08:32:34.999Z,71.8
2017-07-18T08:33:34.453Z,71.8
2017-07-18T08:34:33.531Z,71.4
2017-07-18T08:35:33.243Z,71.6
2017-07-18T08:36:03.517Z,71.6
2017-07-18T08:36:33.902Z,71.6
2017-07-18T08:37:04.283Z,71.6
2017-07-18T08:37:34.548Z,71.6
2017-07-18T08:38:04.854Z,71.6
2017-07-18T08:38:35.624Z,72.3
2017-07-18T08:39:06.000Z,72.3
2017-07-18T08:39:36.381Z,72.9
2017-07-18T08:40:06.902Z,72.9
2017-07-18T08:41:29.034Z,71.4
2017-07-18T08:42:28.221Z,71.2
2017-07-18T08:44:26.678Z,69.6
2017-07-18T08:45:26.255Z,68.8
2017-07-18T08:46:25.721Z,69.3
2017-07-18T08:47:24.811Z,69.4
2017-07-18T08:48:24.395Z,67.8
2017-07-18T08:49:23.592Z,68.1
2017-07-18T08:49:54.101Z,68.1
2017-07-18T08:50:24.489Z,68.5
2017-07-18T08:50:54.997Z,68.5
2017-07-18T08:51:25.280Z,68.7
2017-07-18T08:52:21.467Z,69.7
2017-07-18T08:53:20.672Z,70.1
2017-07-18T08:54:20.128Z,69.5
2017-07-18T08:55:19.704Z,69.1
2017-07-18T08:56:18.910Z,68.1
2017-07-18T08:57:18.108Z,69.1
2017-07-18T08:58:17.478Z,69.6
2017-07-18T08:59:16.672Z,69.8
2017-07-18T09:00:16.143Z,70.2
2017-07-18T09:01:15.604Z,68.8
2017-07-18T09:02:14.804Z,67.2
2017-07-18T09:03:13.900Z,67
2017-07-18T09:04:13.591Z,66.7
2017-07-18T09:05:12.670Z,67.5
2017-07-18T09:06:11.893Z,68.2
2017-07-18T09:07:11.509Z,68.5
2017-07-18T09:08:10.703Z,68.9
2017-07-18T09:08:41.097Z,68.9
2017-07-18T09:09:11.606Z,69.2
2017-07-18T09:09:41.998Z,69.2
2017-07-18T09:11:08.879Z,68.9
2017-07-18T09:12:08.077Z,69.4
2017-07-18T09:13:07.162Z,69.5
2017-07-18T09:14:06.853Z,69
2017-07-18T09:15:06.317Z,66.8
2017-07-18T09:16:05.523Z,66.8
2017-07-18T09:17:04.496Z,66.2
2017-07-18T09:18:04.203Z,66
2017-07-18T09:19:03.280Z,66.2
2017-07-18T09:19:33.812Z,66.2
2017-07-18T09:21:02.205Z,67.1
2017-07-18T09:22:01.286Z,67.1
2017-07-18T09:23:00.865Z,68.1
2017-07-18T09:24:59.717Z,67.6
2017-07-18T09:25:58.794Z,68.1
2017-07-18T09:26:58.387Z,67.9
2017-07-18T09:27:57.573Z,67.9
2017-07-18T09:28:56.762Z,68.6
2017-07-18T09:29:55.952Z,68.5
2017-07-18T09:30:55.685Z,69
2017-07-18T09:31:54.795Z,67.3
2017-07-18T09:32:53.999Z,68.1
2017-07-18T09:33:53.741Z,68.3
2017-07-18T09:34:52.930Z,69.1
2017-07-18T09:35:23.431Z,69.1
2017-07-18T09:35:53.828Z,67.5
2017-07-18T09:36:24.266Z,67.5
2017-07-18T09:36:54.669Z,67.3
2017-07-18T09:37:50.717Z,67.7
2017-07-18T09:38:50.161Z,69.3
2017-07-18T09:39:49.870Z,69.8
2017-07-18T09:40:48.974Z,70.1
2017-07-18T09:41:48.162Z,69.8
2017-07-18T09:42:47.856Z,68.4
2017-07-18T09:43:46.930Z,67.9
2017-07-18T09:44:46.614Z,69.4
2017-07-18T09:45:16.891Z,69.4
2017-07-18T09:45:47.271Z,68.6
2017-07-18T09:46:17.785Z,68.6
2017-07-18T09:47:44.650Z,67.7
2017-07-18T09:49:43.002Z,68
2017-07-18T09:50:42.466Z,67.5
2017-07-18T09:51:41.663Z,67.4
2017-07-18T09:52:41.246Z,65.1
2017-07-18T09:53:40.465Z,65.2
2017-07-18T09:54:39.561Z,65
2017-07-18T09:55:39.031Z,65.2
2017-07-18T09:56:38.386Z,65.3
2017-07-18T09:57:37.843Z,65.3
2017-07-18T09:58:37.539Z,66
2017-07-18T09:59:36.614Z,67
2017-07-18T10:01:35.312Z,68.2
2017-07-18T10:02:34.997Z,68.4
2017-07-18T10:03:34.197Z,66.4
2017-07-18T10:04:33.394Z,65.4
2017-07-18T10:05:33.090Z,64
2017-07-18T10:06:03.486Z,64
2017-07-18T10:06:33.996Z,64.4
2017-07-18T10:07:04.527Z,64.4
2017-07-18T10:07:35.046Z,65.1
2017-07-18T10:08:31.102Z,65.9
2017-07-18T10:09:30.069Z,66.4
2017-07-18T10:10:29.773Z,66.7
2017-07-18T10:11:28.976Z,67.8
2017-07-18T10:12:28.552Z,67.6
2017-07-18T10:13:27.635Z,67.7
2017-07-18T10:14:27.097Z,67.8
2017-07-18T10:15:26.559Z,66.6
2017-07-18T10:15:56.937Z,66.6
2017-07-18T10:16:27.449Z,66.2
2017-07-18T10:16:57.849Z,66.2
2017-07-18T10:17:28.349Z,64.4
2017-07-18T10:17:58.619Z,64.4
2017-07-18T10:18:29.123Z,64.6
2017-07-18T10:18:59.508Z,64.6
2017-07-18T10:20:23.390Z,66.6
2017-07-18T10:21:22.576Z,67
2017-07-18T10:22:22.270Z,67.6
2017-07-18T10:23:21.460Z,68.3
2017-07-18T10:24:20.671Z,68.9
2017-07-18T10:25:20.372Z,68.4
2017-07-18T10:26:19.560Z,68.8
2017-07-18T10:27:18.765Z,67.4
2017-07-18T10:27:49.261Z,67.4
2017-07-18T10:28:19.765Z,66.2
2017-07-18T10:28:50.038Z,66.2
2017-07-18T10:29:20.560Z,66.7
2017-07-18T10:29:51.080Z,66.7
2017-07-18T10:31:16.333Z,67
2017-07-18T10:32:15.803Z,67.3
2017-07-18T10:33:15.393Z,68.5
2017-07-18T10:34:14.744Z,66.9
2017-07-18T10:35:13.821Z,65.2
2017-07-18T10:36:13.513Z,64.3
2017-07-18T10:37:12.699Z,65.2
2017-07-18T10:38:12.154Z,66.1
2017-07-18T10:39:11.136Z,65.5
2017-07-18T10:40:10.716Z,64.2
2017-07-18T10:41:10.402Z,63
2017-07-18T10:42:09.594Z,64
2017-07-18T10:43:09.063Z,64.3
2017-07-18T10:44:08.652Z,64.4
2017-07-18T10:45:07.992Z,64.7
2017-07-18T10:46:07.072Z,65.3
2017-07-18T10:47:06.650Z,65.5
2017-07-18T10:47:37.048Z,65.5
2017-07-18T10:48:07.555Z,63.6
2017-07-18T10:48:38.091Z,63.6
2017-07-18T10:49:08.482Z,65
2017-07-18T10:49:38.878Z,65
2017-07-18T10:50:09.644Z,64.9
2017-07-18T10:51:04.310Z,61.9
2017-07-18T10:52:03.507Z,61.8
2017-07-18T10:53:03.102Z,62.7
2017-07-18T10:54:02.304Z,64.3
2017-07-18T10:55:01.996Z,64.3
2017-07-18T10:56:01.179Z,64.1
2017-07-18T10:57:00.385Z,63.8
2017-07-18T10:58:00.083Z,62
2017-07-18T10:58:30.585Z,62
2017-07-18T10:59:00.860Z,61.1
2017-07-18T10:59:31.378Z,61.1
2017-07-18T11:00:01.886Z,60.6
2017-07-18T11:00:32.048Z,60.6
2017-07-18T11:01:57.414Z,59.5
2017-07-18T11:02:56.881Z,60.3
2017-07-18T11:03:56.598Z,60.3
2017-07-18T11:04:55.799Z,60.4
2017-07-18T11:05:55.384Z,60.5
2017-07-18T11:06:54.468Z,61.8
2017-07-18T11:07:54.045Z,61.1
2017-07-18T11:08:53.632Z,61.7
2017-07-18T11:09:52.723Z,59.7
2017-07-18T11:10:22.876Z,59.7
2017-07-18T11:10:53.652Z,59.1
2017-07-18T11:11:24.033Z,59.1
2017-07-18T11:11:54.547Z,58.8
2017-07-18T11:12:51.228Z,58.7
2017-07-18T11:13:50.424Z,59.4
2017-07-18T11:14:49.526Z,60.4
2017-07-18T11:15:49.492Z,60.3
2017-07-18T11:16:48.683Z,60.9
2017-07-18T11:17:48.263Z,61.7
2017-07-18T11:18:47.606Z,59.4
2017-07-18T11:19:46.829Z,59.9
2017-07-18T11:21:45.795Z,59.7
2017-07-18T11:22:45.377Z,59.7
2017-07-18T11:23:44.833Z,60.6
2017-07-18T11:24:43.920Z,60.9
2017-07-18T11:25:43.616Z,61.4
2017-07-18T11:26:13.896Z,61.4
2017-07-18T11:26:44.413Z,62.3
2017-07-18T11:27:42.171Z,61.4
2017-07-18T11:28:41.623Z,59.5
2017-07-18T11:29:41.323Z,60
2017-07-18T11:30:40.406Z,58.8
2017-07-18T11:31:39.985Z,57.1
2017-07-18T11:32:39.681Z,58.1
2017-07-18T11:33:38.866Z,57.2
2017-07-18T11:34:38.334Z,56.9
2017-07-18T11:35:37.554Z,57.3
2017-07-18T11:36:37.244Z,58.7
2017-07-18T11:37:36.821Z,59.2
2017-07-18T11:38:36.017Z,59.7
2017-07-18T11:39:35.714Z,60.3
2017-07-18T11:40:34.845Z,60.3
2017-07-18T11:41:34.542Z,61.8
2017-07-18T11:42:33.733Z,59.9
2017-07-18T11:43:33.309Z,59.8
2017-07-18T11:44:32.498Z,60.3
2017-07-18T11:45:32.084Z,60.6
2017-07-18T11:46:31.676Z,57.7
2017-07-18T11:47:30.875Z,60.3
2017-07-18T11:48:30.449Z,58.9
2017-07-18T11:49:29.641Z,59.7
2017-07-18T11:50:29.341Z,55.5
2017-07-18T11:51:28.410Z,57.7